Time;durP1;ratioP1;P1;durP2;ratioP2;P2;SDS_P1;SDS_P2;PMS_P1;PMS_P2;Temp;Humidity;BMP_temperature;BMP_pressure;BME280_temperature;BME280_humidity;BME280_pressure;Samples;Min_cycle;Max_cycle;Signal;HPM_P1;HPM_P2
2023/01/31 00:00:16;;;;;;;;;;;;;;;;;;5064671;28;43038;-78
2023/01/31 00:02:42;;;;;;;;;;;;;;;;;;5064250;28;43315;-85
2023/01/31 00:05:08;;;;;;;;;;;;;;;;;;5064814;28;43778;-77
2023/01/31 00:07:34;;;;;;;;;;;;;;;;;;5063511;28;42920;-76
2023/01/31 00:10:00;;;;;;;;;;;;;;;;;;5062054;28;43676;-76
2023/01/31 00:12:26;;;;;;;;;;;;;;;;;;5064174;28;42968;-78
2023/01/31 00:14:51;;;;;;;;;;;;;;;;;;5064456;28;43033;-82
2023/01/31 00:17:17;;;;;;;;;;;;;;;;;;5053964;28;43044;-80
2023/01/31 00:19:43;;;;;;;;;;;;;;;;;;5063265;28;42943;-76
2023/01/31 00:22:09;;;;;;;;;;;;;;;;;;5064316;28;42814;-79
2023/01/31 00:24:35;;;;;;;;;;;;;;;;;;5063822;28;43959;-77
2023/01/31 00:27:01;;;;;;;;;;;;;;;;;;5063021;28;43006;-78
2023/01/31 00:29:27;;;;;;;;;;;;;;;;;;5063884;28;43732;-76
2023/01/31 00:31:53;;;;;;;;;;;;;;;;;;5063969;28;42903;-76
2023/01/31 00:34:18;;;;;;;;;;;;;;;;;;5064023;28;42970;-76
2023/01/31 00:36:44;;;;;;;;;;;;;;;;;;5063022;28;44081;-82
2023/01/31 00:39:10;;;;;;;;;;;;;;;;;;5063072;28;43500;-75
2023/01/31 00:41:36;;;;;;;;;;;;;;;;;;5063746;28;42965;-83
2023/01/31 00:44:02;;;;;;;;;;;;;;;;;;5044394;28;44612;-76
2023/01/31 00:46:28;;;;;;;;;;;;;;;;;;5063837;28;43350;-75
2023/01/31 00:48:55;;;;;;;;;;;;;;;;;;5045246;28;43066;-75
2023/01/31 00:51:21;;;;;;;;;;;;;;;;;;5063043;28;42911;-77
2023/01/31 00:53:46;;;;;;;;;;;;;;;;;;5042396;28;43363;-76
2023/01/31 00:56:12;;;;;;;;;;;;;;;;;;5062722;28;43080;-81
2023/01/31 00:58:38;;;;;;;;;;;;;;;;;;5043983;28;42993;-75
2023/01/31 01:01:04;;;;;;;;;;;;;;;;;;5062858;28;42991;-76
2023/01/31 01:03:30;;;;;;;;;;;;;;;;;;5063816;28;42947;-76
2023/01/31 01:05:56;;;;;;;;;;;;;;;;;;5063256;28;42892;-75
2023/01/31 01:08:22;;;;;;;;;;;;;;;;;;5063503;28;43684;-80
2023/01/31 01:10:48;;;;;;;;;;;;;;;;;;5061874;28;43240;-81
2023/01/31 01:13:13;;;;;;;;;;;;;;;;;;5062722;28;43512;-76
2023/01/31 01:15:39;;;;;;;;;;;;;;;;;;5062267;28;43828;-78
2023/01/31 01:18:05;;;;;;;;;;;;;;;;;;5062858;28;43344;-80
2023/01/31 01:20:31;;;;;;;;;;;;;;;;;;5063286;28;43018;-80
2023/01/31 01:22:57;;;;;;;;;;;;;;;;;;5066442;28;43803;-79
2023/01/31 01:25:23;;;;;;;;;;;;;;;;;;5065075;28;44119;-78
2023/01/31 01:27:49;;;;;;;;;;;;;;;;;;5055889;28;43698;-78
2023/01/31 01:30:15;;;;;;;;;;;;;;;;;;5064839;28;42931;-76
2023/01/31 01:32:41;;;;;;;;;;;;;;;;;;5065728;28;43024;-78
2023/01/31 01:35:07;;;;;;;;;;;;;;;;;;5064238;28;42921;-76
2023/01/31 01:37:33;;;;;;;;;;;;;;;;;;5066464;28;42939;-84
2023/01/31 01:39:58;;;;;;;;;;;;;;;;;;5065837;28;42928;-76
2023/01/31 01:42:24;;;;;;;;;;;;;;;;;;5064528;28;43024;-77
2023/01/31 01:44:51;;;;;;;;;;;;;;;;;;5065669;28;42966;-79
2023/01/31 01:47:17;;;;;;;;;;;;;;;;;;5065698;28;43359;-76
2023/01/31 01:49:43;;;;;;;;;;;;;;;;;;5065268;28;43014;-79
2023/01/31 01:52:08;;;;;;;;;;;;;;;;;;5065360;28;42994;-78
2023/01/31 01:54:34;;;;;;;;;;;;;;;;;;5065328;28;42904;-77
2023/01/31 01:57:00;;;;;;;;;;;;;;;;;;5065205;28;44022;-79
2023/01/31 01:59:26;;;;;;;;;;;;;;;;;;5065775;28;42946;-78
2023/01/31 02:01:52;;;;;;;;;;;;;;;;;;5065536;28;43030;-76
2023/01/31 02:04:18;;;;;;;;;;;;;;;;;;5064387;28;43056;-76
2023/01/31 02:06:44;;;;;;;;;;;;;;;;;;5063134;28;43416;-76
2023/01/31 02:09:10;;;;;;;;;;;;;;;;;;5064630;28;43122;-76
2023/01/31 02:11:36;;;;;;;;;;;;;;;;;;5065877;28;44182;-76
2023/01/31 02:14:02;;;;;;;;;;;;;;;;;;5065056;28;42955;-79
2023/01/31 02:16:27;;;;;;;;;;;;;;;;;;5065098;28;43593;-77
2023/01/31 02:18:53;;;;;;;;;;;;;;;;;;5063733;28;43081;-78
2023/01/31 02:21:19;;;;;;;;;;;;;;;;;;5065199;28;42926;-77
2023/01/31 02:23:45;;;;;;;;;;;;;;;;;;5066152;28;42985;-75
2023/01/31 02:26:11;;;;;;;;;;;;;;;;;;5065826;28;42985;-78
2023/01/31 02:28:37;;;;;;;;;;;;;;;;;;5063947;28;43070;-76
2023/01/31 02:31:03;;;;;;;;;;;;;;;;;;5064766;28;42896;-77
2023/01/31 02:33:29;;;;;;;;;;;;;;;;;;5063543;28;42942;-79
2023/01/31 02:35:55;;;;;;;;;;;;;;;;;;5047308;28;45588;-76
2023/01/31 02:38:21;;;;;;;;;;;;;;;;;;5065020;28;42955;-76
2023/01/31 02:40:46;;;;;;;;;;;;;;;;;;5065679;28;43454;-76
2023/01/31 02:43:12;;;;;;;;;;;;;;;;;;5065524;28;43076;-76
2023/01/31 02:45:38;;;;;;;;;;;;;;;;;;5064733;28;42975;-76
2023/01/31 02:48:06;;;;;;;;;;;;;;;;;;5064192;28;42936;-76
2023/01/31 02:50:32;;;;;;;;;;;;;;;;;;5064285;28;43356;-76
2023/01/31 02:52:58;;;;;;;;;;;;;;;;;;5066612;28;43261;-77
2023/01/31 02:58:09;;;;;;;;;;;;;;;;;;5064832;28;43045;-77
2023/01/31 03:00:35;;;;;;;;;;;;;;;;;;5064626;28;42991;-76
2023/01/31 03:03:01;;;;;;;;;;;;;;;;;;5063921;28;42991;-77
2023/01/31 03:05:27;;;;;;;;;;;;;;;;;;5065159;28;42891;-76
2023/01/31 03:07:53;;;;;;;;;;;;;;;;;;5064278;28;43033;-76
2023/01/31 03:10:19;;;;;;;;;;;;;;;;;;5064261;28;42938;-76
2023/01/31 03:12:44;;;;;;;;;;;;;;;;;;5064611;28;42951;-76
2023/01/31 03:15:12;;;;;;;;;;;;;;;;;;5063444;28;43028;-79
2023/01/31 03:17:38;;;;;;;;;;;;;;;;;;5063551;28;42909;-76
2023/01/31 03:20:04;;;;;;;;;;;;;;;;;;5063670;28;43078;-76
2023/01/31 03:22:30;;;;;;;;;;;;;;;;;;5064575;28;42941;-74
2023/01/31 03:24:55;;;;;;;;;;;;;;;;;;5064579;28;42991;-78
2023/01/31 03:27:21;;;;;;;;;;;;;;;;;;5064487;28;43075;-76
2023/01/31 03:29:47;;;;;;;;;;;;;;;;;;5063173;28;43694;-76
2023/01/31 03:32:13;;;;;;;;;;;;;;;;;;5062028;28;42953;-77
2023/01/31 03:34:39;;;;;;;;;;;;;;;;;;5038211;28;44920;-77
2023/01/31 03:37:05;;;;;;;;;;;;;;;;;;5055270;28;43031;-78
2023/01/31 03:39:31;;;;;;;;;;;;;;;;;;5048510;28;43020;-75
2023/01/31 03:41:57;;;;;;;;;;;;;;;;;;5049241;28;42938;-76
2023/01/31 03:44:23;;;;;;;;;;;;;;;;;;5054509;28;42976;-75
2023/01/31 03:46:49;;;;;;;;;;;;;;;;;;5053577;28;43030;-75
2023/01/31 03:49:14;;;;;;;;;;;;;;;;;;5046786;28;43183;-77
2023/01/31 03:51:40;;;;;;;;;;;;;;;;;;5047171;28;42959;-76
2023/01/31 03:54:06;;;;;;;;;;;;;;;;;;5044990;28;43036;-76
2023/01/31 03:56:32;;;;;;;;;;;;;;;;;;5046928;28;42972;-75
2023/01/31 03:58:58;;;;;;;;;;;;;;;;;;5031629;28;45596;-75
2023/01/31 04:01:24;;;;;;;;;;;;;;;;;;5055125;28;43190;-80
2023/01/31 04:03:50;;;;;;;;;;;;;;;;;;5046256;28;44448;-75
2023/01/31 04:06:16;;;;;;;;;;;;;;;;;;5046909;28;42980;-76
2023/01/31 04:08:42;;;;;;;;;;;;;;;;;;5046160;28;42817;-76
2023/01/31 04:11:08;;;;;;;;;;;;;;;;;;5046032;28;42909;-76
2023/01/31 04:13:34;;;;;;;;;;;;;;;;;;5048398;28;43389;-75
2023/01/31 04:16:00;;;;;;;;;;;;;;;;;;5057205;28;43024;-75
2023/01/31 04:18:25;;;;;;;;;;;;;;;;;;5048690;28;43014;-75
2023/01/31 04:20:51;;;;;;;;;;;;;;;;;;5044860;28;42978;-76
2023/01/31 04:23:17;;;;;;;;;;;;;;;;;;5060881;28;43039;-79
2023/01/31 04:25:43;;;;;;;;;;;;;;;;;;5052194;28;43045;-74
2023/01/31 04:28:09;;;;;;;;;;;;;;;;;;5050312;28;43028;-75
2023/01/31 04:30:35;;;;;;;;;;;;;;;;;;5054064;28;43166;-75
2023/01/31 04:33:01;;;;;;;;;;;;;;;;;;5050254;28;43961;-75
2023/01/31 04:35:27;;;;;;;;;;;;;;;;;;5062777;28;43052;-77
2023/01/31 04:37:53;;;;;;;;;;;;;;;;;;5062752;28;43923;-75
2023/01/31 04:40:18;;;;;;;;;;;;;;;;;;5055971;28;43250;-78
2023/01/31 04:42:45;;;;;;;;;;;;;;;;;;5060554;28;43686;-75
2023/01/31 04:45:11;;;;;;;;;;;;;;;;;;5045290;28;43047;-76
2023/01/31 04:47:36;;;;;;;;;;;;;;;;;;5042554;28;42998;-76
2023/01/31 04:50:02;;;;;;;;;;;;;;;;;;5056994;28;43595;-76
2023/01/31 04:52:28;;;;;;;;;;;;;;;;;;5062750;28;44305;-76
2023/01/31 04:54:54;;;;;;;;;;;;;;;;;;5056567;28;43785;-77
2023/01/31 04:57:20;;;;;;;;;;;;;;;;;;5050369;28;43418;-75
2023/01/31 04:59:46;;;;;;;;;;;;;;;;;;5055073;28;43060;-75
2023/01/31 05:02:13;;;;;;;;;;;;;;;;;;5055172;28;42971;-75
2023/01/31 05:04:39;;;;;;;;;;;;;;;;;;5063824;28;42987;-76
2023/01/31 05:07:05;;;;;;;;;;;;;;;;;;5047116;28;43294;-76
2023/01/31 05:09:31;;;;;;;;;;;;;;;;;;5047683;28;43077;-75
2023/01/31 05:11:57;;;;;;;;;;;;;;;;;;5053224;28;44015;-81
2023/01/31 05:14:23;;;;;;;;;;;;;;;;;;5061760;28;43294;-75
2023/01/31 05:16:49;;;;;;;;;;;;;;;;;;5055850;28;43394;-77
2023/01/31 05:19:15;;;;;;;;;;;;;;;;;;5054886;28;43030;-76
2023/01/31 05:21:59;;;;;;;;;;;;;;;;;;5064145;28;42928;-76
2023/01/31 05:24:25;;;;;;;;;;;;;;;;;;5065792;28;43036;-80
2023/01/31 05:26:52;;;;;;;;;;;;;;;;;;5065858;28;42887;-76
2023/01/31 05:29:18;;;;;;;;;;;;;;;;;;5062311;28;42861;-78
2023/01/31 05:31:44;;;;;;;;;;;;;;;;;;5064421;28;43471;-78
2023/01/31 05:34:14;;;;;;;;;;;;;;;;;;5066651;28;42841;-78
2023/01/31 05:36:41;;;;;;;;;;;;;;;;;;5065528;28;62282;-82
2023/01/31 05:39:07;;;;;;;;;;;;;;;;;;5066833;28;43185;-82
2023/01/31 05:41:33;;;;;;;;;;;;;;;;;;5061878;28;43059;-79
2023/01/31 05:43:59;;;;;;;;;;;;;;;;;;5039661;28;43156;-79
2023/01/31 05:46:25;;;;;;;;;;;;;;;;;;5060069;28;44590;-79
2023/01/31 05:48:51;;;;;;;;;;;;;;;;;;5059129;28;43270;-77
2023/01/31 05:51:17;;;;;;;;;;;;;;;;;;5052798;28;43678;-81
2023/01/31 05:53:42;;;;;;;;;;;;;;;;;;5059112;28;42943;-77
2023/01/31 05:56:08;;;;;;;;;;;;;;;;;;5066138;28;43438;-81
2023/01/31 05:58:34;;;;;;;;;;;;;;;;;;5065305;28;42991;-79
2023/01/31 06:01:00;;;;;;;;;;;;;;;;;;5065626;28;43499;-82
2023/01/31 06:03:26;;;;;;;;;;;;;;;;;;5047269;28;43012;-77
2023/01/31 06:05:52;;;;;;;;;;;;;;;;;;5041602;28;44551;-77
2023/01/31 06:08:18;;;;;;;;;;;;;;;;;;5065605;28;43685;-83
2023/01/31 06:10:44;;;;;;;;;;;;;;;;;;5065296;28;43387;-78
2023/01/31 06:13:10;;;;;;;;;;;;;;;;;;5047035;28;43114;-84
2023/01/31 06:15:36;;;;;;;;;;;;;;;;;;5065455;28;42824;-81
2023/01/31 06:18:02;;;;;;;;;;;;;;;;;;5046524;28;43147;-78
2023/01/31 06:20:28;;;;;;;;;;;;;;;;;;5064986;28;43530;-80
2023/01/31 06:22:54;;;;;;;;;;;;;;;;;;5061763;28;42887;-78
2023/01/31 06:25:20;;;;;;;;;;;;;;;;;;5065559;28;44033;-83
2023/01/31 06:27:46;;;;;;;;;;;;;;;;;;5065319;28;43393;-76
2023/01/31 06:30:12;;;;;;;;;;;;;;;;;;5064874;28;43039;-79
2023/01/31 06:32:38;;;;;;;;;;;;;;;;;;5065525;28;42864;-77
2023/01/31 06:35:03;;;;;;;;;;;;;;;;;;5065824;28;42820;-78
2023/01/31 06:37:29;;;;;;;;;;;;;;;;;;5065499;28;43126;-82
2023/01/31 06:39:55;;;;;;;;;;;;;;;;;;5064205;28;43118;-82
2023/01/31 06:42:21;;;;;;;;;;;;;;;;;;5065480;28;42876;-81
2023/01/31 06:44:47;;;;;;;;;;;;;;;;;;5064423;28;43100;-80
2023/01/31 06:47:13;;;;;;;;;;;;;;;;;;5065216;28;43203;-79
2023/01/31 06:49:39;;;;;;;;;;;;;;;;;;5065654;28;43062;-80
2023/01/31 06:52:05;;;;;;;;;;;;;;;;;;5065021;28;42948;-84
2023/01/31 06:54:31;;;;;;;;;;;;;;;;;;5061793;28;43048;-83
2023/01/31 06:56:57;;;;;;;;;;;;;;;;;;5064973;28;42769;-83
2023/01/31 06:59:23;;;;;;;;;;;;;;;;;;5047909;28;43521;-86
2023/01/31 07:01:48;;;;;;;;;;;;;;;;;;5066057;28;43041;-80
2023/01/31 07:04:14;;;;;;;;;;;;;;;;;;5065530;28;42890;-86
2023/01/31 07:06:40;;;;;;;;;;;;;;;;;;5066293;28;42987;-78
2023/01/31 07:09:06;;;;;;;;;;;;;;;;;;5065711;28;42893;-75
2023/01/31 07:11:32;;;;;;;;;;;;;;;;;;5066061;28;42817;-80
2023/01/31 07:13:58;;;;;;;;;;;;;;;;;;5065713;28;42917;-77
2023/01/31 07:16:24;;;;;;;;;;;;;;;;;;5065656;28;42864;-78
2023/01/31 07:18:50;;;;;;;;;;;;;;;;;;5064550;28;43079;-77
2023/01/31 07:21:16;;;;;;;;;;;;;;;;;;5065659;28;42866;-84
2023/01/31 07:23:44;;;;;;;;;;;;;;;;;;5065985;28;42927;-78
2023/01/31 07:26:10;;;;;;;;;;;;;;;;;;5065022;28;42915;-79
2023/01/31 07:28:36;;;;;;;;;;;;;;;;;;5065426;28;42921;-76
2023/01/31 07:31:02;;;;;;;;;;;;;;;;;;5064419;28;43061;-77
2023/01/31 07:33:29;;;;;;;;;;;;;;;;;;5064593;28;43414;-87
2023/01/31 07:35:54;;;;;;;;;;;;;;;;;;5046462;28;43083;-76
2023/01/31 07:38:20;;;;;;;;;;;;;;;;;;5064782;28;44017;-79
2023/01/31 07:40:46;;;;;;;;;;;;;;;;;;5046684;28;42992;-87
2023/01/31 07:43:12;;;;;;;;;;;;;;;;;;5065380;28;42711;-78
2023/01/31 07:45:38;;;;;;;;;;;;;;;;;;5046958;28;42913;-84
2023/01/31 07:48:05;;;;;;;;;;;;;;;;;;5065436;28;43327;-80
2023/01/31 07:50:31;;;;;;;;;;;;;;;;;;5065374;28;42869;-78
2023/01/31 07:52:57;;;;;;;;;;;;;;;;;;5064836;28;42994;-76
2023/01/31 07:55:23;;;;;;;;;;;;;;;;;;5065344;28;42915;-86
2023/01/31 07:57:49;;;;;;;;;;;;;;;;;;5064527;28;43933;-76
2023/01/31 08:05:44;;;;;;;;;;;;;;;;;;5064489;28;42952;-80
2023/01/31 08:08:10;;;;;;;;;;;;;;;;;;5064458;28;44103;-82
2023/01/31 08:10:35;;;;;;;;;;;;;;;;;;5064474;28;42793;-87
2023/01/31 08:13:01;;;;;;;;;;;;;;;;;;5064628;28;43596;-86
2023/01/31 08:15:27;;;;;;;;;;;;;;;;;;5064428;28;43066;-83
2023/01/31 08:17:53;;;;;;;;;;;;;;;;;;5064854;28;42942;-81
2023/01/31 08:20:19;;;;;;;;;;;;;;;;;;5046686;28;42807;-84
2023/01/31 08:22:45;;;;;;;;;;;;;;;;;;5064962;28;43501;-88
2023/01/31 08:25:11;;;;;;;;;;;;;;;;;;5064558;28;42927;-85
2023/01/31 08:27:37;;;;;;;;;;;;;;;;;;5064644;28;44011;-79
2023/01/31 08:30:03;;;;;;;;;;;;;;;;;;5063333;28;42896;-78
2023/01/31 08:32:28;;;;;;;;;;;;;;;;;;5064163;28;42979;-78
2023/01/31 08:34:54;;;;;;;;;;;;;;;;;;5064710;28;43108;-77
2023/01/31 08:37:20;;;;;;;;;;;;;;;;;;5064169;28;42972;-78
2023/01/31 08:39:47;;;;;;;;;;;;;;;;;;5064504;28;43045;-76
2023/01/31 08:42:13;;;;;;;;;;;;;;;;;;5069183;28;42934;-77
2023/01/31 08:44:39;;;;;;;;;;;;;;;;;;5071295;28;43038;-75
2023/01/31 08:47:05;;;;;;;;;;;;;;;;;;5064237;28;42894;-78
2023/01/31 08:49:35;;;;;;;;;;;;;;;;;;5064819;28;42990;-79
2023/01/31 08:52:01;;;;;;;;;;;;;;;;;;5063856;28;43093;-78
2023/01/31 08:54:26;;;;;;;;;;;;;;;;;;5063822;28;42972;-75
2023/01/31 08:56:52;;;;;;;;;;;;;;;;;;5045577;28;44368;-82
2023/01/31 08:59:18;;;;;;;;;;;;;;;;;;5064693;28;43020;-76
2023/01/31 09:01:45;;;;;;;;;;;;;;;;;;5064163;28;42999;-81
2023/01/31 09:04:11;;;;;;;;;;;;;;;;;;5064087;28;42941;-75
2023/01/31 09:06:37;;;;;;;;;;;;;;;;;;5064193;28;43445;-76
2023/01/31 09:09:03;;;;;;;;;;;;;;;;;;5063366;28;42977;-76
2023/01/31 09:11:29;;;;;;;;;;;;;;;;;;5063298;28;42887;-76
2023/01/31 09:13:55;;;;;;;;;;;;;;;;;;5063477;28;42911;-75
2023/01/31 09:16:21;;;;;;;;;;;;;;;;;;5045307;28;44118;-77
2023/01/31 09:18:47;;;;;;;;;;;;;;;;;;5063817;28;43041;-76
2023/01/31 09:21:13;;;;;;;;;;;;;;;;;;5063642;28;43543;-76
2023/01/31 09:23:39;;;;;;;;;;;;;;;;;;5045868;28;42921;-75
2023/01/31 09:26:04;;;;;;;;;;;;;;;;;;5063663;28;42817;-75
2023/01/31 09:28:30;;;;;;;;;;;;;;;;;;5063847;28;42896;-76
2023/01/31 09:30:56;;;;;;;;;;;;;;;;;;5063052;28;43920;-76
2023/01/31 09:33:22;;;;;;;;;;;;;;;;;;5064144;28;42753;-77
2023/01/31 09:35:48;;;;;;;;;;;;;;;;;;5063392;28;43367;-76
2023/01/31 09:38:14;;;;;;;;;;;;;;;;;;5063376;28;43177;-76
2023/01/31 09:40:40;;;;;;;;;;;;;;;;;;5074494;27;43898;-83
2023/01/31 09:43:06;;;;;;;;;;;;;;;;;;5069278;28;43048;-84
2023/01/31 09:45:32;;;;;;;;;;;;;;;;;;5048475;28;44357;-88
2023/01/31 09:47:57;;;;;;;;;;;;;;;;;;5066884;28;42907;-78
2023/01/31 09:50:23;;;;;;;;;;;;;;;;;;5067127;28;43014;-76
2023/01/31 09:52:49;;;;;;;;;;;;;;;;;;5066974;28;42976;-76
2023/01/31 09:55:15;;;;;;;;;;;;;;;;;;5066756;28;43812;-85
2023/01/31 09:57:41;;;;;;;;;;;;;;;;;;5048851;28;42872;-86
2023/01/31 10:00:07;;;;;;;;;;;;;;;;;;5067045;28;43918;-81
2023/01/31 10:02:33;;;;;;;;;;;;;;;;;;5066640;28;42872;-76
2023/01/31 10:04:59;;;;;;;;;;;;;;;;;;5066772;28;43791;-76
2023/01/31 10:07:24;;;;;;;;;;;;;;;;;;5066555;28;43187;-76
2023/01/31 10:09:50;;;;;;;;;;;;;;;;;;5048339;28;42890;-76
2023/01/31 10:12:16;;;;;;;;;;;;;;;;;;5066733;28;42966;-75
2023/01/31 10:14:42;;;;;;;;;;;;;;;;;;5066706;28;42805;-75
2023/01/31 10:17:08;;;;;;;;;;;;;;;;;;5066291;28;43121;-76
2023/01/31 10:19:34;;;;;;;;;;;;;;;;;;5066534;28;42840;-76
2023/01/31 10:22:00;;;;;;;;;;;;;;;;;;5049376;28;43174;-86
2023/01/31 10:24:27;;;;;;;;;;;;;;;;;;5059004;28;42898;-76
2023/01/31 10:26:53;;;;;;;;;;;;;;;;;;5064706;28;43359;-75
2023/01/31 10:29:19;;;;;;;;;;;;;;;;;;5064427;28;43061;-79
2023/01/31 10:31:45;;;;;;;;;;;;;;;;;;5065777;28;43073;-76
2023/01/31 10:34:11;;;;;;;;;;;;;;;;;;5066441;28;43829;-75
2023/01/31 10:36:37;;;;;;;;;;;;;;;;;;5066640;28;43040;-76
2023/01/31 10:39:03;;;;;;;;;;;;;;;;;;5066129;28;42895;-77
2023/01/31 10:41:29;;;;;;;;;;;;;;;;;;5065649;28;43045;-75
2023/01/31 10:43:54;;;;;;;;;;;;;;;;;;5065912;28;43648;-75
2023/01/31 10:46:20;;;;;;;;;;;;;;;;;;5065732;28;42936;-75
2023/01/31 10:48:46;;;;;;;;;;;;;;;;;;5066015;28;43751;-75
2023/01/31 10:51:12;;;;;;;;;;;;;;;;;;5065889;28;43015;-78
2023/01/31 10:53:38;;;;;;;;;;;;;;;;;;5064704;28;42947;-75
2023/01/31 10:56:04;;;;;;;;;;;;;;;;;;5065762;28;43065;-75
2023/01/31 10:58:30;;;;;;;;;;;;;;;;;;5065739;28;43454;-75
2023/01/31 11:00:56;;;;;;;;;;;;;;;;;;5066110;28;42931;-76
2023/01/31 11:03:22;;;;;;;;;;;;;;;;;;5065672;28;43223;-76
2023/01/31 11:05:48;;;;;;;;;;;;;;;;;;5066050;28;42906;-75
2023/01/31 11:08:14;;;;;;;;;;;;;;;;;;5065404;28;42997;-77
2023/01/31 11:10:40;;;;;;;;;;;;;;;;;;5065746;28;43323;-76
2023/01/31 11:13:08;;;;;;;;;;;;;;;;;;5065540;28;42991;-76
2023/01/31 11:15:34;;;;;;;;;;;;;;;;;;5065040;28;43006;-76
2023/01/31 11:18:00;;;;;;;;;;;;;;;;;;5065853;28;43538;-76
2023/01/31 11:20:26;;;;;;;;;;;;;;;;;;5065815;28;43655;-76
2023/01/31 11:22:52;;;;;;;;;;;;;;;;;;5065689;28;43589;-75
2023/01/31 11:25:21;;;;;;;;;;;;;;;;;;5065346;28;42864;-76
2023/01/31 11:27:46;;;;;;;;;;;;;;;;;;5065143;28;42988;-76
2023/01/31 11:30:12;;;;;;;;;;;;;;;;;;5065274;28;43116;-75
2023/01/31 11:32:38;;;;;;;;;;;;;;;;;;5065047;28;42940;-77
2023/01/31 11:35:04;;;;;;;;;;;;;;;;;;5065177;28;43326;-76
2023/01/31 11:37:30;;;;;;;;;;;;;;;;;;5055429;28;43507;-86
2023/01/31 11:39:56;;;;;;;;;;;;;;;;;;5056025;28;43036;-76
2023/01/31 11:42:22;;;;;;;;;;;;;;;;;;5053805;28;42924;-75
2023/01/31 11:44:48;;;;;;;;;;;;;;;;;;5045380;28;43152;-75
2023/01/31 11:47:14;;;;;;;;;;;;;;;;;;5048838;28;42859;-80
2023/01/31 11:49:40;;;;;;;;;;;;;;;;;;5055903;28;43003;-78
2023/01/31 11:52:06;;;;;;;;;;;;;;;;;;5034521;28;44422;-80
2023/01/31 11:54:32;;;;;;;;;;;;;;;;;;5058414;28;43058;-80
2023/01/31 11:56:58;;;;;;;;;;;;;;;;;;5049174;28;43518;-80
2023/01/31 11:59:23;;;;;;;;;;;;;;;;;;5050448;28;42974;-80
2023/01/31 12:01:49;;;;;;;;;;;;;;;;;;5030868;28;44850;-80
2023/01/31 12:04:16;;;;;;;;;;;;;;;;;;5043252;28;43030;-80
2023/01/31 12:06:42;;;;;;;;;;;;;;;;;;5026051;28;45028;-79
2023/01/31 12:09:08;;;;;;;;;;;;;;;;;;5045755;28;42928;-79
2023/01/31 12:11:34;;;;;;;;;;;;;;;;;;5043952;28;44065;-77
2023/01/31 12:13:59;;;;;;;;;;;;;;;;;;5050850;28;43047;-78
2023/01/31 12:16:25;;;;;;;;;;;;;;;;;;5055007;28;43620;-79
2023/01/31 12:18:51;;;;;;;;;;;;;;;;;;5026294;28;43107;-79
2023/01/31 12:21:17;;;;;;;;;;;;;;;;;;5044978;28;42980;-79
2023/01/31 12:23:43;;;;;;;;;;;;;;;;;;5045645;28;42944;-80
2023/01/31 12:26:09;;;;;;;;;;;;;;;;;;5058844;28;44057;-81
2023/01/31 12:28:35;;;;;;;;;;;;;;;;;;5043827;28;42918;-79
2023/01/31 12:31:01;;;;;;;;;;;;;;;;;;5044314;28;42875;-79
2023/01/31 12:33:27;;;;;;;;;;;;;;;;;;5045003;28;42786;-88
2023/01/31 12:35:52;;;;;;;;;;;;;;;;;;5045706;28;43586;-78
2023/01/31 12:38:18;;;;;;;;;;;;;;;;;;5044390;28;42809;-81
2023/01/31 12:40:44;;;;;;;;;;;;;;;;;;5054947;28;43124;-80
2023/01/31 12:43:10;;;;;;;;;;;;;;;;;;5056533;28;43041;-80
2023/01/31 12:45:36;;;;;;;;;;;;;;;;;;5051480;28;42965;-81
2023/01/31 12:48:02;;;;;;;;;;;;;;;;;;5063743;28;42986;-79
2023/01/31 12:50:28;;;;;;;;;;;;;;;;;;5054012;28;43397;-80
2023/01/31 12:52:54;;;;;;;;;;;;;;;;;;5053370;28;42990;-80
2023/01/31 12:55:20;;;;;;;;;;;;;;;;;;5050340;28;43675;-81
2023/01/31 12:57:46;;;;;;;;;;;;;;;;;;5048071;28;43141;-80
2023/01/31 13:00:12;;;;;;;;;;;;;;;;;;5053848;28;43568;-79
2023/01/31 13:02:38;;;;;;;;;;;;;;;;;;5045428;28;42868;-81
2023/01/31 13:05:04;;;;;;;;;;;;;;;;;;5055582;28;42947;-79
2023/01/31 13:07:30;;;;;;;;;;;;;;;;;;5042713;28;42967;-82
2023/01/31 13:09:56;;;;;;;;;;;;;;;;;;5043669;28;43679;-79
2023/01/31 13:12:24;;;;;;;;;;;;;;;;;;5052674;28;42954;-80
2023/01/31 13:14:50;;;;;;;;;;;;;;;;;;5049654;28;43362;-81
2023/01/31 13:17:16;;;;;;;;;;;;;;;;;;5059009;28;42967;-79
2023/01/31 13:19:41;;;;;;;;;;;;;;;;;;5048314;28;43567;-79
2023/01/31 13:22:07;;;;;;;;;;;;;;;;;;5046254;28;43004;-80
2023/01/31 13:24:33;;;;;;;;;;;;;;;;;;5059873;28;43611;-78
2023/01/31 13:27:01;;;;;;;;;;;;;;;;;;5060253;28;42923;-79
2023/01/31 13:29:26;;;;;;;;;;;;;;;;;;5056277;28;43080;-79
2023/01/31 13:31:52;;;;;;;;;;;;;;;;;;5061417;28;42993;-78
2023/01/31 13:34:18;;;;;;;;;;;;;;;;;;5054183;28;42972;-80
2023/01/31 13:36:44;;;;;;;;;;;;;;;;;;5055496;28;43346;-78
2023/01/31 13:39:10;;;;;;;;;;;;;;;;;;5059610;28;42860;-80
2023/01/31 13:41:38;;;;;;;;;;;;;;;;;;5053161;28;42967;-77
2023/01/31 13:44:04;;;;;;;;;;;;;;;;;;5047216;28;42959;-79
2023/01/31 13:46:30;;;;;;;;;;;;;;;;;;5048592;28;43008;-79
2023/01/31 13:48:56;;;;;;;;;;;;;;;;;;5049332;28;43671;-79
2023/01/31 13:51:21;;;;;;;;;;;;;;;;;;5053710;28;43050;-79
2023/01/31 13:53:47;;;;;;;;;;;;;;;;;;5055000;28;43490;-79
2023/01/31 13:56:13;;;;;;;;;;;;;;;;;;5054206;28;43157;-78
2023/01/31 13:58:41;;;;;;;;;;;;;;;;;;5062699;28;43034;-78
2023/01/31 14:01:07;;;;;;;;;;;;;;;;;;5057394;28;42847;-77
2023/01/31 14:03:33;;;;;;;;;;;;;;;;;;5052180;28;43018;-78
2023/01/31 14:05:59;;;;;;;;;;;;;;;;;;5062623;28;43032;-88
2023/01/31 14:08:25;;;;;;;;;;;;;;;;;;5051050;28;43338;-86
2023/01/31 14:10:50;;;;;;;;;;;;;;;;;;5058767;28;43042;-77
2023/01/31 14:13:16;;;;;;;;;;;;;;;;;;5066062;28;43786;-78
2023/01/31 14:15:42;;;;;;;;;;;;;;;;;;5066048;28;43066;-77
2023/01/31 14:18:08;;;;;;;;;;;;;;;;;;5060955;28;43694;-77
2023/01/31 14:20:34;;;;;;;;;;;;;;;;;;5051185;28;43119;-79
2023/01/31 14:23:00;;;;;;;;;;;;;;;;;;5048924;28;43046;-87
2023/01/31 14:25:26;;;;;;;;;;;;;;;;;;5048272;28;42899;-84
2023/01/31 14:27:52;;;;;;;;;;;;;;;;;;5050064;28;42978;-77
2023/01/31 14:30:17;;;;;;;;;;;;;;;;;;5032859;28;43007;-80
2023/01/31 14:32:43;;;;;;;;;;;;;;;;;;5048535;28;43843;-78
2023/01/31 14:35:09;;;;;;;;;;;;;;;;;;5047969;28;43018;-84
2023/01/31 14:37:35;;;;;;;;;;;;;;;;;;5056616;28;43593;-83
2023/01/31 14:40:01;;;;;;;;;;;;;;;;;;5033058;28;42949;-85
2023/01/31 14:42:27;;;;;;;;;;;;;;;;;;5028629;28;45389;-85
2023/01/31 14:44:53;;;;;;;;;;;;;;;;;;5033023;28;43083;-86
2023/01/31 14:47:19;;;;;;;;;;;;;;;;;;5046511;28;45019;-85
2023/01/31 14:49:45;;;;;;;;;;;;;;;;;;5063756;28;42929;-83
2023/01/31 14:52:11;;;;;;;;;;;;;;;;;;5029218;28;44407;-82
2023/01/31 14:54:37;;;;;;;;;;;;;;;;;;5034157;28;43163;-84
2023/01/31 14:57:02;;;;;;;;;;;;;;;;;;5029543;28;45222;-84
2023/01/31 14:59:28;;;;;;;;;;;;;;;;;;5040706;28;42963;-83
2023/01/31 15:01:54;;;;;;;;;;;;;;;;;;5045721;28;43105;-86
2023/01/31 15:04:21;;;;;;;;;;;;;;;;;;5030342;28;43121;-81
2023/01/31 15:06:46;;;;;;;;;;;;;;;;;;5051469;28;43013;-82
2023/01/31 15:09:12;;;;;;;;;;;;;;;;;;5047169;28;42963;-85
2023/01/31 15:11:39;;;;;;;;;;;;;;;;;;5043119;28;44786;-85
2023/01/31 15:14:05;;;;;;;;;;;;;;;;;;5061936;28;42974;-79
2023/01/31 15:16:31;;;;;;;;;;;;;;;;;;5064277;28;43662;-79
2023/01/31 15:18:57;;;;;;;;;;;;;;;;;;5046740;28;43045;-78
2023/01/31 15:21:23;;;;;;;;;;;;;;;;;;5055453;28;43273;-79
2023/01/31 15:23:49;;;;;;;;;;;;;;;;;;5064792;28;42891;-78
2023/01/31 15:26:15;;;;;;;;;;;;;;;;;;5064455;28;43020;-78
2023/01/31 15:28:41;;;;;;;;;;;;;;;;;;5064889;28;42816;-78
2023/01/31 15:31:07;;;;;;;;;;;;;;;;;;5064399;28;43034;-81
2023/01/31 15:33:33;;;;;;;;;;;;;;;;;;5064229;28;43070;-76
2023/01/31 15:35:58;;;;;;;;;;;;;;;;;;5060444;28;43476;-85
2023/01/31 15:38:24;;;;;;;;;;;;;;;;;;5052723;28;43087;-86
2023/01/31 15:40:50;;;;;;;;;;;;;;;;;;5026594;28;43683;-85
2023/01/31 15:43:16;;;;;;;;;;;;;;;;;;5046102;28;42991;-86
2023/01/31 15:45:42;;;;;;;;;;;;;;;;;;5048113;28;42940;-86
2023/01/31 15:48:08;;;;;;;;;;;;;;;;;;5031385;28;43157;-85
2023/01/31 15:50:34;;;;;;;;;;;;;;;;;;5046384;28;43023;-87
2023/01/31 15:53:00;;;;;;;;;;;;;;;;;;5048353;28;42977;-85
2023/01/31 15:55:26;;;;;;;;;;;;;;;;;;5045032;28;43421;-87
2023/01/31 15:57:55;;;;;;;;;;;;;;;;;;5047621;28;42936;-85
2023/01/31 16:00:21;;;;;;;;;;;;;;;;;;5045235;28;43716;-86
2023/01/31 16:02:47;;;;;;;;;;;;;;;;;;5047131;28;43000;-87
2023/01/31 16:05:13;;;;;;;;;;;;;;;;;;5054485;28;43643;-87
2023/01/31 16:07:39;;;;;;;;;;;;;;;;;;5060512;28;42987;-85
2023/01/31 16:10:04;;;;;;;;;;;;;;;;;;5045084;28;43657;-85
2023/01/31 16:12:31;;;;;;;;;;;;;;;;;;5052438;28;43010;-85
2023/01/31 16:14:58;;;;;;;;;;;;;;;;;;5062420;28;43556;-87
2023/01/31 16:17:24;;;;;;;;;;;;;;;;;;5034478;28;43023;-87
2023/01/31 16:19:50;;;;;;;;;;;;;;;;;;5030779;28;43685;-87
2023/01/31 16:22:16;;;;;;;;;;;;;;;;;;5064142;28;42904;-86
2023/01/31 16:24:42;;;;;;;;;;;;;;;;;;5051236;28;43058;-84
2023/01/31 16:27:08;;;;;;;;;;;;;;;;;;5029926;28;43096;-87
2023/01/31 16:29:33;;;;;;;;;;;;;;;;;;5046549;28;43554;-85
2023/01/31 16:31:59;;;;;;;;;;;;;;;;;;5034981;28;43032;-87
2023/01/31 16:34:25;;;;;;;;;;;;;;;;;;5008623;28;43508;-87
2023/01/31 16:36:52;;;;;;;;;;;;;;;;;;5017725;28;43106;-86
2023/01/31 16:39:18;;;;;;;;;;;;;;;;;;5011975;28;42959;-87
2023/01/31 16:41:44;;;;;;;;;;;;;;;;;;5009027;28;43018;-85
2023/01/31 16:44:10;;;;;;;;;;;;;;;;;;5011376;28;45342;-84